NOZ28M EGKK-EKCH
Flight info
| Callsign | NOZ28M |
|---|---|
| Flight time | N/A |
| Altitude | 37000 |
| Route | FRANE M604 PAAVO Q295 SOMVA DCT MAVAS DCT ANDIK N873 JUIST DCT ROCZO DCT DOSUR DCT TALSA P729 TUDLO |
| Aircraft | B738/M-SDE2E3FGHIRWXY/LB1 |
Departure
| Time | 2026-04-14 16:01 |
|---|---|
| Airport | London Gatwick Airport (EGKK) |
Arrival
| Time | N/A |
|---|---|
| Airport | Copenhagen Kastrup Airport (EKCH) |
| Time | Latitude | Longitude | Altitude | Speed | Heading |
|---|---|---|---|---|---|
| 2026-04-14 15:39 | 51.15493 | -0.16904 | 198 ft | 0 kts | 347° |
| 2026-04-14 15:49 | 51.15487 | -0.16902 | 198 ft | 2 kts | 347° |
| 2026-04-14 15:49 | 51.15472 | -0.16896 | 198 ft | 2 kts | 348° |
| 2026-04-14 15:49 | 51.15457 | -0.16891 | 198 ft | 2 kts | 356° |
| 2026-04-14 15:50 | 51.15443 | -0.16899 | 198 ft | 2 kts | 44° |
| 2026-04-14 15:50 | 51.15437 | -0.16914 | 198 ft | 0 kts | 74° |
| 2026-04-14 15:50 | 51.15436 | -0.16925 | 198 ft | 0 kts | 78° |
| 2026-04-14 15:53 | 51.15437 | -0.16919 | 198 ft | 1 kts | 78° |
| 2026-04-14 15:53 | 51.15442 | -0.16888 | 198 ft | 4 kts | 74° |
| 2026-04-14 15:54 | 51.15453 | -0.16790 | 198 ft | 3 kts | 92° |
| 2026-04-14 15:54 | 51.15442 | -0.16746 | 198 ft | 4 kts | 128° |
| 2026-04-14 15:54 | 51.15417 | -0.16723 | 198 ft | 5 kts | 162° |
| 2026-04-14 15:55 | 51.15383 | -0.16709 | 198 ft | 5 kts | 167° |
| 2026-04-14 15:55 | 51.15345 | -0.16692 | 198 ft | 6 kts | 161° |
| 2026-04-14 15:55 | 51.15316 | -0.16678 | 198 ft | 2 kts | 166° |
| 2026-04-14 15:55 | 51.15302 | -0.16673 | 198 ft | 1 kts | 167° |
| 2026-04-14 15:56 | 51.15297 | -0.16671 | 198 ft | 0 kts | 168° |
| 2026-04-14 15:56 | 51.15296 | -0.16670 | 198 ft | 0 kts | 168° |
| 2026-04-14 15:58 | 51.15295 | -0.16670 | 198 ft | 1 kts | 168° |
| 2026-04-14 15:58 | 51.15275 | -0.16663 | 198 ft | 7 kts | 168° |
| 2026-04-14 15:59 | 51.15190 | -0.16634 | 198 ft | 13 kts | 171° |
| 2026-04-14 15:59 | 51.15135 | -0.16687 | 198 ft | 8 kts | 255° |
| 2026-04-14 15:59 | 51.15131 | -0.16713 | 198 ft | 0 kts | 258° |
| 2026-04-14 15:59 | 51.15131 | -0.16714 | 198 ft | 0 kts | 257° |
| 2026-04-14 16:00 | 51.15129 | -0.16732 | 198 ft | 11 kts | 256° |
| 2026-04-14 16:00 | 51.15037 | -0.17321 | 198 ft | 96 kts | 255° |
| 2026-04-14 16:01 | 51.14809 | -0.18731 | 228 ft | 161 kts | 257° |
| 2026-04-14 16:01 | 51.14720 | -0.20644 | 727 ft | 183 kts | 264° |
| 2026-04-14 16:01 | 51.14665 | -0.22613 | 1716 ft | 177 kts | 257° |
| 2026-04-14 16:01 | 51.14239 | -0.24467 | 2350 ft | 188 kts | 240° |
| 2026-04-14 16:02 | 51.13778 | -0.26583 | 2887 ft | 217 kts | 252° |
| 2026-04-14 16:02 | 51.13661 | -0.29040 | 3765 ft | 234 kts | 277° |
| 2026-04-14 16:02 | 51.14393 | -0.31460 | 4054 ft | 252 kts | 310° |
| 2026-04-14 16:02 | 51.15878 | -0.32814 | 3992 ft | 248 kts | 350° |
| 2026-04-14 16:03 | 51.17567 | -0.32441 | 3997 ft | 247 kts | 29° |
| 2026-04-14 16:03 | 51.18788 | -0.30557 | 3996 ft | 247 kts | 66° |
| 2026-04-14 16:03 | 51.19275 | -0.27976 | 3993 ft | 242 kts | 83° |
| 2026-04-14 16:03 | 51.19607 | -0.25334 | 3989 ft | 244 kts | 81° |
| 2026-04-14 16:04 | 51.20007 | -0.22678 | 3990 ft | 244 kts | 79° |
| 2026-04-14 16:04 | 51.20393 | -0.20066 | 3993 ft | 240 kts | 82° |
| 2026-04-14 16:04 | 51.20741 | -0.17239 | 4358 ft | 272 kts | 82° |
| 2026-04-14 16:04 | 51.21110 | -0.14222 | 4991 ft | 287 kts | 81° |
| 2026-04-14 16:05 | 51.21517 | -0.11068 | 5046 ft | 289 kts | 81° |
| 2026-04-14 16:05 | 51.21940 | -0.07932 | 5121 ft | 280 kts | 81° |
| 2026-04-14 16:05 | 51.22358 | -0.04815 | 5371 ft | 299 kts | 82° |
| 2026-04-14 16:05 | 51.22785 | -0.01553 | 6147 ft | 302 kts | 81° |
| 2026-04-14 16:06 | 51.23205 | 0.01725 | 6189 ft | 303 kts | 81° |
| 2026-04-14 16:06 | 51.23637 | 0.05035 | 7154 ft | 309 kts | 81° |
| 2026-04-14 16:06 | 51.24063 | 0.08318 | 8394 ft | 305 kts | 81° |
| 2026-04-14 16:06 | 51.24472 | 0.11669 | 9274 ft | 312 kts | 81° |
| 2026-04-14 16:07 | 51.24913 | 0.15084 | 10241 ft | 316 kts | 79° |
| 2026-04-14 16:07 | 51.25347 | 0.18592 | 10721 ft | 336 kts | 84° |
| 2026-04-14 16:07 | 51.25651 | 0.22445 | 11105 ft | 359 kts | 78° |
| 2026-04-14 16:07 | 51.26559 | 0.26268 | 11412 ft | 381 kts | 57° |
| 2026-04-14 16:08 | 51.28310 | 0.29468 | 12150 ft | 383 kts | 36° |
| 2026-04-14 16:08 | 51.30487 | 0.31918 | 12743 ft | 391 kts | 29° |
| 2026-04-14 16:08 | 51.32793 | 0.34328 | 13137 ft | 400 kts | 30° |
| 2026-04-14 16:08 | 51.35129 | 0.36811 | 13123 ft | 397 kts | 30° |
| 2026-04-14 16:09 | 51.37398 | 0.39233 | 13131 ft | 394 kts | 30° |
| 2026-04-14 16:09 | 51.39700 | 0.41689 | 13625 ft | 402 kts | 30° |
| 2026-04-14 16:09 | 51.42033 | 0.44198 | 14402 ft | 406 kts | 30° |
| 2026-04-14 16:09 | 51.44371 | 0.46737 | 15035 ft | 412 kts | 30° |
| 2026-04-14 16:10 | 51.46746 | 0.49343 | 15722 ft | 417 kts | 30° |
| 2026-04-14 16:10 | 51.49169 | 0.51977 | 16317 ft | 421 kts | 26° |
| 2026-04-14 16:10 | 51.51738 | 0.54288 | 16946 ft | 423 kts | 21° |
| 2026-04-14 16:10 | 51.54347 | 0.56454 | 17537 ft | 428 kts | 21° |
| 2026-04-14 16:11 | 51.56940 | 0.58677 | 18098 ft | 433 kts | 22° |
| 2026-04-14 16:11 | 51.59616 | 0.61030 | 18656 ft | 438 kts | 22° |
| 2026-04-14 16:11 | 51.62218 | 0.63340 | 19180 ft | 443 kts | 22° |
| 2026-04-14 16:11 | 51.64930 | 0.65761 | 19689 ft | 447 kts | 23° |
| 2026-04-14 16:12 | 51.67638 | 0.68181 | 20167 ft | 452 kts | 22° |
| 2026-04-14 16:12 | 51.70397 | 0.70654 | 20651 ft | 456 kts | 22° |
| 2026-04-14 16:12 | 51.73183 | 0.73160 | 21112 ft | 460 kts | 22° |
| 2026-04-14 16:12 | 51.76017 | 0.75719 | 21572 ft | 464 kts | 22° |
| 2026-04-14 16:13 | 51.78836 | 0.78270 | 22006 ft | 468 kts | 22° |
| 2026-04-14 16:13 | 51.81668 | 0.80888 | 22430 ft | 475 kts | 26° |
| 2026-04-14 16:13 | 51.84261 | 0.84354 | 22779 ft | 493 kts | 43° |
| 2026-04-14 16:13 | 51.86431 | 0.88710 | 23289 ft | 497 kts | 49° |
| 2026-04-14 16:14 | 51.88389 | 0.93406 | 23535 ft | 508 kts | 58° |
| 2026-04-14 16:14 | 51.89910 | 0.98569 | 23966 ft | 512 kts | 66° |
| 2026-04-14 16:14 | 51.91272 | 1.03988 | 24347 ft | 516 kts | 67° |
| 2026-04-14 16:14 | 51.92603 | 1.09337 | 24708 ft | 519 kts | 66° |
| 2026-04-14 16:15 | 51.93962 | 1.14749 | 25061 ft | 523 kts | 66° |
| 2026-04-14 16:15 | 51.95339 | 1.20216 | 25407 ft | 526 kts | 67° |
| 2026-04-14 16:15 | 51.96724 | 1.25728 | 25698 ft | 529 kts | 66° |
| 2026-04-14 16:15 | 51.98122 | 1.31291 | 25979 ft | 532 kts | 66° |
| 2026-04-14 16:16 | 51.99529 | 1.36894 | 26263 ft | 535 kts | 66° |
| 2026-04-14 16:16 | 52.00920 | 1.42438 | 26534 ft | 538 kts | 66° |
| 2026-04-14 16:16 | 52.02352 | 1.48150 | 26813 ft | 541 kts | 66° |
| 2026-04-14 16:16 | 52.03772 | 1.53829 | 27084 ft | 544 kts | 66° |
| 2026-04-14 16:17 | 52.05187 | 1.59497 | 27353 ft | 547 kts | 66° |
| 2026-04-14 16:17 | 52.06607 | 1.65196 | 27621 ft | 550 kts | 67° |
| 2026-04-14 16:17 | 52.08055 | 1.71011 | 27864 ft | 553 kts | 67° |
| 2026-04-14 16:17 | 52.09498 | 1.76800 | 28120 ft | 556 kts | 67° |
| 2026-04-14 16:18 | 52.10945 | 1.82624 | 28353 ft | 558 kts | 67° |
| 2026-04-14 16:18 | 52.12380 | 1.88421 | 28585 ft | 561 kts | 67° |
| 2026-04-14 16:18 | 52.13845 | 1.94367 | 28826 ft | 563 kts | 67° |
| 2026-04-14 16:18 | 52.15300 | 2.00291 | 29079 ft | 565 kts | 67° |
| 2026-04-14 16:19 | 52.16765 | 2.06273 | 29347 ft | 566 kts | 67° |
| 2026-04-14 16:19 | 52.18230 | 2.12276 | 29620 ft | 567 kts | 67° |
| 2026-04-14 16:19 | 52.19683 | 2.18244 | 29895 ft | 568 kts | 67° |
| 2026-04-14 16:19 | 52.21128 | 2.24199 | 30173 ft | 569 kts | 67° |
| 2026-04-14 16:20 | 52.22586 | 2.30217 | 30455 ft | 570 kts | 67° |
| 2026-04-14 16:20 | 52.24051 | 2.36285 | 30736 ft | 570 kts | 66° |
| 2026-04-14 16:20 | 52.25509 | 2.42341 | 31016 ft | 571 kts | 66° |
| 2026-04-14 16:20 | 52.26961 | 2.48384 | 31300 ft | 572 kts | 66° |
| 2026-04-14 16:21 | 52.28397 | 2.54383 | 31589 ft | 572 kts | 66° |
| 2026-04-14 16:21 | 52.29852 | 2.60471 | 31878 ft | 573 kts | 66° |
| 2026-04-14 16:21 | 52.31224 | 2.66576 | 32156 ft | 575 kts | 71° |
| 2026-04-14 16:21 | 52.32399 | 2.72910 | 32416 ft | 575 kts | 74° |
| 2026-04-14 16:22 | 52.33469 | 2.79228 | 32673 ft | 576 kts | 75° |
| 2026-04-14 16:22 | 52.34532 | 2.85521 | 32925 ft | 576 kts | 74° |
| 2026-04-14 16:22 | 52.35617 | 2.91858 | 33181 ft | 577 kts | 73° |
| 2026-04-14 16:22 | 52.36707 | 2.98162 | 33451 ft | 577 kts | 73° |
| 2026-04-14 16:23 | 52.37810 | 3.04500 | 33719 ft | 577 kts | 72° |
| 2026-04-14 16:23 | 52.38914 | 3.10806 | 33992 ft | 576 kts | 71° |
| 2026-04-14 16:23 | 52.40025 | 3.17140 | 34281 ft | 576 kts | 71° |
| 2026-04-14 16:23 | 52.41129 | 3.23452 | 34555 ft | 575 kts | 71° |
| 2026-04-14 16:24 | 52.42216 | 3.29726 | 34830 ft | 575 kts | 71° |
| 2026-04-14 16:24 | 52.43294 | 3.36006 | 35098 ft | 574 kts | 71° |
| 2026-04-14 16:24 | 52.44370 | 3.42317 | 35366 ft | 574 kts | 71° |
| 2026-04-14 16:24 | 52.45449 | 3.48686 | 35633 ft | 573 kts | 71° |
| 2026-04-14 16:25 | 52.46511 | 3.54977 | 35895 ft | 572 kts | 71° |
| 2026-04-14 16:25 | 52.47562 | 3.61237 | 36151 ft | 572 kts | 71° |
| 2026-04-14 16:25 | 52.48624 | 3.67587 | 36378 ft | 572 kts | 72° |
| 2026-04-14 16:25 | 52.49672 | 3.73840 | 36583 ft | 572 kts | 72° |
| 2026-04-14 16:26 | 52.50731 | 3.80160 | 36787 ft | 571 kts | 72° |
| 2026-04-14 16:26 | 52.51778 | 3.86451 | 36985 ft | 571 kts | 72° |
| 2026-04-14 16:26 | 52.52812 | 3.92700 | 37155 ft | 571 kts | 72° |
| 2026-04-14 16:27 | 52.54881 | 4.05309 | 37189 ft | 569 kts | 72° |
| 2026-04-14 16:27 | 52.56913 | 4.17804 | 37199 ft | 566 kts | 72° |
| 2026-04-14 16:28 | 52.58931 | 4.30305 | 37206 ft | 566 kts | 72° |
| 2026-04-14 16:28 | 52.60937 | 4.42820 | 37209 ft | 567 kts | 72° |
| 2026-04-14 16:29 | 52.62937 | 4.55401 | 37209 ft | 567 kts | 72° |